createdAt,value
2022-08-04T00:02:38.462Z,17.20
2022-08-04T00:06:04.747Z,17.20
2022-08-04T00:10:01.103Z,17.19
2022-08-04T00:13:58.117Z,17.19
2022-08-04T00:17:30.926Z,17.13
2022-08-04T00:21:24.079Z,17.06
2022-08-04T00:25:05.317Z,17.01
2022-08-04T00:28:27.028Z,16.97
2022-08-04T00:32:03.897Z,16.94
2022-08-04T00:36:00.206Z,16.95
2022-08-04T00:39:22.889Z,16.95
2022-08-04T00:43:09.107Z,16.92
2022-08-04T00:47:29.290Z,16.87
2022-08-04T00:51:21.078Z,16.78
2022-08-04T00:55:19.707Z,16.73
2022-08-04T00:59:08.959Z,16.70
2022-08-04T01:02:39.737Z,16.67
2022-08-04T01:06:56.094Z,16.61
2022-08-04T01:11:00.382Z,16.53
2022-08-04T01:14:59.759Z,16.42
2022-08-04T01:18:31.340Z,16.31
2022-08-04T01:22:24.120Z,16.23
2022-08-04T01:25:51.474Z,16.20
2022-08-04T01:29:30.480Z,16.17
2022-08-04T01:33:12.488Z,16.12
2022-08-04T01:36:50.109Z,16.10
2022-08-04T01:40:21.660Z,16.04
2022-08-04T01:43:56.845Z,15.96
2022-08-04T01:47:36.298Z,15.89
2022-08-04T01:51:09.967Z,15.83
2022-08-04T01:54:48.284Z,15.82
2022-08-04T01:58:24.870Z,15.81
2022-08-04T02:02:23.722Z,15.81
2022-08-04T02:06:21.745Z,15.80
2022-08-04T02:09:55.298Z,15.76
2022-08-04T02:13:26.118Z,15.69
2022-08-04T02:16:56.074Z,15.59
2022-08-04T02:20:39.351Z,15.51
2022-08-04T02:24:14.817Z,15.47
2022-08-04T02:28:19.586Z,15.48
2022-08-04T02:31:49.554Z,15.47
2022-08-04T02:35:28.226Z,15.43
2022-08-04T02:39:00.665Z,15.37
2022-08-04T02:42:50.399Z,15.31
2022-08-04T02:46:17.761Z,15.26
2022-08-04T02:49:50.721Z,15.23
2022-08-04T02:53:45.754Z,15.24
2022-08-04T02:57:30.001Z,15.27
2022-08-04T03:01:09.291Z,15.26
2022-08-04T03:04:51.465Z,15.23
2022-08-04T03:08:31.352Z,15.18
2022-08-04T03:12:39.327Z,15.14
2022-08-04T03:16:30.010Z,15.13
2022-08-04T03:20:23.054Z,15.14
2022-08-04T03:24:21.079Z,15.17
2022-08-04T03:27:55.018Z,15.15
2022-08-04T03:31:59.124Z,15.09
2022-08-04T03:35:36.812Z,15.04
2022-08-04T03:39:14.802Z,15.01
2022-08-04T03:42:54.896Z,15.03
2022-08-04T03:46:51.940Z,15.07
2022-08-04T03:50:41.961Z,15.11
2022-08-04T03:54:41.069Z,15.12
2022-08-04T03:58:37.309Z,15.10
2022-08-04T04:02:35.038Z,15.07
2022-08-04T04:06:27.587Z,15.07
2022-08-04T04:10:26.809Z,15.12
2022-08-04T04:14:15.513Z,15.20
2022-08-04T04:18:05.942Z,15.29
2022-08-04T04:22:02.363Z,15.36
2022-08-04T04:25:23.726Z,15.40
2022-08-04T04:29:39.854Z,15.43
2022-08-04T04:33:27.007Z,15.50
2022-08-04T04:37:47.650Z,15.59
2022-08-04T04:41:44.375Z,15.72
2022-08-04T04:45:36.978Z,15.89
2022-08-04T04:49:48.285Z,16.04
2022-08-04T04:53:23.516Z,16.19
2022-08-04T04:57:13.066Z,16.31
2022-08-04T05:01:19.535Z,16.47
2022-08-04T05:04:58.979Z,16.63
2022-08-04T05:08:58.304Z,16.84
2022-08-04T05:14:31.966Z,17.09
2022-08-04T05:16:35.230Z,17.33
2022-08-04T05:20:11.108Z,17.48
2022-08-04T05:23:47.601Z,17.62
2022-08-04T05:27:26.570Z,17.76
2022-08-04T05:31:01.622Z,17.88
2022-08-04T05:34:39.217Z,18.08
2022-08-04T05:38:12.235Z,18.27
2022-08-04T05:41:55.512Z,18.46
2022-08-04T05:45:23.726Z,18.63
2022-08-04T05:48:58.683Z,18.81
2022-08-04T05:52:40.041Z,18.97
2022-08-04T05:56:14.926Z,19.11
2022-08-04T05:59:51.060Z,19.24
2022-08-04T06:03:47.462Z,19.41
2022-08-04T06:07:26.985Z,19.61
2022-08-04T06:11:10.520Z,19.80
2022-08-04T06:14:40.583Z,19.95
2022-08-04T06:19:57.140Z,20.09
2022-08-04T06:21:55.341Z,20.22
2022-08-04T06:25:33.208Z,20.37
2022-08-04T06:29:31.365Z,20.49
2022-08-04T06:33:03.717Z,20.66
2022-08-04T06:36:49.017Z,20.83
2022-08-04T06:40:31.205Z,20.99
2022-08-04T06:43:54.076Z,21.15
2022-08-04T06:47:31.831Z,21.29
2022-08-04T06:51:25.418Z,21.43
2022-08-04T06:54:52.360Z,21.61
2022-08-04T06:58:31.498Z,21.76
2022-08-04T07:02:03.356Z,21.94
2022-08-04T07:05:41.060Z,22.07
2022-08-04T07:09:16.550Z,22.17
2022-08-04T07:13:12.384Z,22.28
2022-08-04T07:16:34.659Z,22.41
2022-08-04T07:20:33.993Z,22.51
2022-08-04T07:23:57.047Z,22.64
2022-08-04T07:27:47.847Z,22.72
2022-08-04T07:31:32.928Z,22.82
2022-08-04T07:34:56.429Z,22.93
2022-08-04T07:38:33.782Z,23.06
2022-08-04T07:42:11.110Z,23.16
2022-08-04T07:45:46.505Z,23.26
2022-08-04T07:49:55.064Z,23.37
2022-08-04T07:53:53.405Z,23.51
2022-08-04T07:56:51.947Z,23.66
2022-08-04T08:00:26.877Z,23.80
2022-08-04T08:04:03.236Z,23.91
2022-08-04T08:07:50.358Z,24.03
2022-08-04T08:12:38.286Z,24.11
2022-08-04T08:15:17.844Z,24.20
2022-08-04T08:18:53.916Z,24.30
2022-08-04T08:22:31.697Z,24.41
2022-08-04T08:26:26.809Z,24.52
2022-08-04T08:29:49.389Z,24.61
2022-08-04T08:33:46.508Z,24.73
2022-08-04T08:37:15.726Z,24.82
2022-08-04T08:41:24.071Z,24.93
2022-08-04T08:45:19.752Z,25.09
2022-08-04T08:49:01.923Z,25.22
2022-08-04T08:53:01.104Z,25.35
2022-08-04T08:57:12.314Z,25.47
2022-08-04T09:01:09.451Z,25.59
2022-08-04T09:05:05.567Z,25.69
2022-08-04T09:08:46.500Z,25.80
2022-08-04T09:12:41.808Z,25.90
2022-08-04T09:16:35.024Z,26.00
2022-08-04T09:20:47.117Z,26.14
2022-08-04T09:24:36.180Z,26.28
2022-08-04T09:28:37.153Z,26.36
2022-08-04T09:32:28.099Z,26.46
2022-08-04T09:36:15.405Z,26.53
2022-08-04T09:40:31.059Z,26.63
2022-08-04T09:44:48.881Z,26.80
2022-08-04T09:48:34.683Z,26.80
2022-08-04T09:53:03.245Z,26.90
2022-08-04T09:56:35.646Z,27.03
2022-08-04T10:00:09.528Z,27.15
2022-08-04T10:03:43.222Z,27.25
2022-08-04T10:08:14.984Z,27.39
2022-08-04T10:11:57.659Z,27.40
2022-08-04T10:15:40.406Z,27.50
2022-08-04T10:19:30.995Z,27.62
2022-08-04T10:23:12.433Z,27.80
2022-08-04T10:26:58.462Z,27.92
2022-08-04T10:30:22.154Z,28.06
2022-08-04T10:34:27.474Z,28.18
2022-08-04T10:38:15.423Z,28.29
2022-08-04T10:41:56.526Z,28.39
2022-08-04T10:45:27.565Z,28.48
2022-08-04T10:49:02.485Z,28.62
2022-08-04T10:53:02.657Z,28.67
2022-08-04T10:56:35.223Z,28.61
2022-08-04T11:00:16.490Z,28.52
2022-08-04T11:03:52.017Z,28.66
2022-08-04T11:07:18.347Z,28.68
2022-08-04T11:12:00.507Z,28.70
2022-08-04T11:15:37.002Z,28.91
2022-08-04T11:19:42.725Z,29.07
2022-08-04T11:23:17.532Z,29.09
2022-08-04T11:27:19.108Z,28.97
2022-08-04T11:31:23.293Z,29.11
2022-08-04T11:34:54.097Z,29.35
2022-08-04T11:38:45.272Z,29.58
2022-08-04T11:42:39.220Z,29.75
2022-08-04T11:46:08.824Z,29.44
2022-08-04T11:50:08.092Z,29.36
2022-08-04T11:53:36.925Z,29.64
2022-08-04T11:57:36.081Z,29.89
2022-08-04T12:01:21.696Z,30.09
2022-08-04T12:04:58.210Z,30.03
2022-08-04T12:08:30.643Z,30.13
2022-08-04T12:12:29.861Z,30.27
2022-08-04T12:16:17.066Z,30.65
2022-08-04T12:20:04.439Z,31.08
2022-08-04T12:23:36.192Z,31.31
2022-08-04T12:27:31.005Z,31.51
2022-08-04T12:31:04.235Z,31.38
2022-08-04T12:34:35.669Z,31.39
2022-08-04T12:38:12.471Z,31.22
2022-08-04T12:41:56.297Z,31.49
2022-08-04T12:45:21.903Z,31.75
2022-08-04T12:49:16.569Z,31.96
2022-08-04T12:53:00.932Z,32.06
2022-08-04T12:56:27.143Z,32.23
2022-08-04T13:00:01.531Z,32.18
2022-08-04T13:04:01.593Z,32.13
2022-08-04T13:07:25.340Z,32.32
2022-08-04T13:11:00.493Z,32.51
2022-08-04T13:14:40.331Z,32.24
2022-08-04T13:18:15.271Z,32.25
2022-08-04T13:22:09.260Z,32.34
2022-08-04T13:26:44.794Z,32.50
2022-08-04T13:29:16.669Z,32.78
2022-08-04T13:32:53.634Z,33.10
2022-08-04T13:36:30.246Z,33.05
2022-08-04T13:40:09.263Z,33.05
2022-08-04T13:44:16.285Z,33.22
2022-08-04T13:47:30.718Z,33.27
2022-08-04T13:51:06.692Z,33.29
2022-08-04T13:54:44.188Z,33.45
2022-08-04T13:58:46.895Z,33.63
2022-08-04T14:02:39.195Z,33.87
2022-08-04T14:06:13.639Z,34.07
2022-08-04T14:09:39.751Z,34.15
2022-08-04T14:13:15.541Z,34.13
2022-08-04T14:16:59.514Z,34.30
2022-08-04T14:21:02.664Z,34.37
2022-08-04T14:24:29.215Z,34.52
2022-08-04T14:29:00.044Z,34.59
2022-08-04T14:32:14.763Z,34.57
2022-08-04T14:36:01.466Z,34.71
2022-08-04T14:40:08.086Z,34.85
2022-08-04T14:43:29.927Z,34.63
2022-08-04T14:47:06.503Z,34.53
2022-08-04T14:51:02.927Z,34.82
2022-08-04T14:54:35.629Z,34.99
2022-08-04T14:58:35.054Z,35.09
2022-08-04T15:02:01.673Z,35.27
2022-08-04T15:06:02.199Z,35.65
2022-08-04T15:09:47.874Z,36.10
2022-08-04T15:13:33.016Z,36.42
2022-08-04T15:16:55.043Z,36.34
2022-08-04T15:20:32.060Z,36.36
2022-08-04T15:24:08.720Z,36.50
2022-08-04T15:27:49.944Z,36.57
2022-08-04T15:32:07.954Z,36.61
2022-08-04T15:35:14.430Z,36.63
2022-08-04T15:39:05.057Z,36.64
2022-08-04T15:43:10.042Z,36.57
2022-08-04T15:47:03.733Z,36.51
2022-08-04T15:50:28.643Z,36.51
2022-08-04T15:54:08.448Z,36.40
2022-08-04T15:58:13.553Z,36.29
2022-08-04T16:01:35.597Z,36.35
2022-08-04T16:05:36.282Z,36.50
2022-08-04T16:09:03.705Z,36.46
2022-08-04T16:12:56.569Z,36.37
2022-08-04T16:16:43.088Z,36.26
2022-08-04T16:20:15.445Z,36.18
2022-08-04T16:24:05.835Z,36.04
2022-08-04T16:27:43.806Z,35.87
2022-08-04T16:31:10.573Z,35.59
2022-08-04T16:35:42.425Z,35.30
2022-08-04T16:39:05.249Z,34.97
2022-08-04T16:42:42.674Z,34.79
2022-08-04T16:47:08.465Z,34.71
2022-08-04T16:50:25.285Z,34.40
2022-08-04T16:54:23.086Z,34.25
2022-08-04T16:57:50.514Z,34.17
2022-08-04T17:01:51.330Z,34.10
2022-08-04T17:05:38.561Z,33.98
2022-08-04T17:09:26.767Z,33.82
2022-08-04T17:14:03.000Z,33.66
2022-08-04T17:17:10.792Z,33.29
2022-08-04T17:21:00.810Z,33.10
2022-08-04T17:24:43.374Z,32.95
2022-08-04T17:28:19.453Z,32.67
2022-08-04T17:31:47.998Z,32.18
2022-08-04T17:35:24.559Z,31.65
2022-08-04T17:39:16.195Z,31.15
2022-08-04T17:42:41.471Z,30.70
2022-08-04T17:46:28.667Z,30.25
2022-08-04T17:50:07.219Z,29.87
2022-08-04T17:54:02.629Z,29.44
2022-08-04T17:57:25.921Z,28.98
2022-08-04T18:01:23.682Z,28.55
2022-08-04T18:05:06.301Z,28.13
2022-08-04T18:08:38.395Z,27.70
2022-08-04T18:12:31.271Z,27.29
2022-08-04T18:16:22.334Z,26.92
2022-08-04T18:19:52.721Z,26.55
2022-08-04T18:23:31.366Z,26.12
2022-08-04T18:27:23.328Z,25.76
2022-08-04T18:30:55.275Z,25.42
2022-08-04T18:34:24.428Z,25.18
2022-08-04T18:38:23.427Z,24.93
2022-08-04T18:42:01.771Z,24.54
2022-08-04T18:45:34.323Z,24.21
2022-08-04T18:49:03.910Z,23.97
2022-08-04T18:52:42.092Z,23.76
2022-08-04T18:56:29.269Z,23.57
2022-08-04T18:59:56.533Z,23.39
2022-08-04T19:03:33.349Z,23.20
2022-08-04T19:07:33.813Z,23.00
2022-08-04T19:10:59.644Z,22.82
2022-08-04T19:14:30.289Z,22.65
2022-08-04T19:18:07.371Z,22.48
2022-08-04T19:22:00.918Z,22.32
2022-08-04T19:29:37.771Z,22.02
2022-08-04T19:33:03.661Z,21.89
2022-08-04T19:36:40.056Z,21.77
2022-08-04T19:40:39.783Z,21.67
2022-08-04T19:44:13.821Z,21.57
2022-08-04T19:48:16.010Z,21.44
2022-08-04T19:51:38.766Z,21.32
2022-08-04T19:55:37.503Z,21.20
2022-08-04T19:59:00.807Z,21.03
2022-08-04T20:02:36.621Z,20.92
2022-08-04T20:06:13.773Z,20.82
2022-08-04T20:09:53.607Z,20.72
2022-08-04T20:13:30.990Z,20.66
2022-08-04T20:17:10.282Z,20.59
2022-08-04T20:20:59.553Z,20.50
2022-08-04T20:24:48.040Z,20.38
2022-08-04T20:28:36.519Z,20.25
2022-08-04T20:32:05.233Z,20.12
2022-08-04T20:36:05.514Z,20.02
2022-08-04T20:39:54.458Z,19.94
2022-08-04T20:43:17.305Z,19.87
2022-08-04T20:47:13.236Z,19.78
2022-08-04T20:50:35.941Z,19.70
2022-08-04T20:54:16.119Z,19.63
2022-08-04T20:57:52.005Z,19.58
2022-08-04T21:01:48.777Z,19.50
2022-08-04T21:05:11.058Z,19.42
2022-08-04T21:08:56.747Z,19.35
2022-08-04T21:12:43.757Z,19.27
2022-08-04T21:16:53.854Z,19.19
2022-08-04T21:20:16.565Z,19.11
2022-08-04T21:24:20.429Z,19.02
2022-08-04T21:28:04.205Z,18.91
2022-08-04T21:35:54.198Z,18.74
2022-08-04T21:39:50.060Z,18.62
2022-08-04T21:43:13.089Z,18.55
2022-08-04T21:46:49.672Z,18.53
2022-08-04T21:50:45.292Z,18.54
2022-08-04T21:54:31.130Z,18.52
2022-08-04T21:57:54.739Z,18.51
2022-08-04T22:01:50.306Z,18.48
2022-08-04T22:05:32.822Z,18.43
2022-08-04T22:08:55.046Z,18.41
2022-08-04T22:12:33.640Z,18.35
2022-08-04T22:16:08.172Z,18.27
2022-08-04T22:19:55.661Z,18.19
2022-08-04T22:23:24.136Z,18.09
2022-08-04T22:26:59.165Z,18.02
2022-08-04T22:30:37.730Z,17.95
2022-08-04T22:34:12.454Z,17.87
2022-08-04T22:38:21.333Z,17.78
2022-08-04T22:42:09.160Z,17.71
2022-08-04T22:45:56.126Z,17.66
2022-08-04T22:49:37.516Z,17.65
2022-08-04T22:53:19.128Z,17.60
2022-08-04T22:57:00.773Z,17.55
2022-08-04T23:00:28.641Z,17.47
2022-08-04T23:03:59.626Z,17.38
2022-08-04T23:07:55.548Z,17.28
2022-08-04T23:11:18.237Z,17.21
2022-08-04T23:14:56.494Z,17.12
2022-08-04T23:18:50.449Z,17.07
2022-08-04T23:22:42.730Z,17.01
2022-08-04T23:26:16.258Z,17.00
2022-08-04T23:30:11.378Z,17.02
2022-08-04T23:33:51.515Z,17.09
2022-08-04T23:37:14.560Z,17.14
2022-08-04T23:40:55.833Z,17.17
2022-08-04T23:44:29.582Z,17.18
2022-08-04T23:48:15.907Z,17.16
2022-08-04T23:51:41.650Z,17.13
2022-08-04T23:55:18.998Z,17.07
2022-08-04T23:59:17.986Z,17.02
